Main page
METAR-TAF:

METAR-TAF

Airports :

Gran Canaria Airport

Gran Canaria, Spain

latitude: 27-56N, longitude: 015-23W, elevation: 23 m

Current weather observation

The report was made 43 minutes ago, at 03:30 UTC
Wind 17 kt from the North/Northeast
Temperature 23°C
Humidity 83%
Pressure 1016 hPa
Visibility 10 km or more
Few clouds at a height of 1200 ft

METAR: GCLP 190330Z 02017KT 9999 FEW012 23/20 Q1016 NOSIG

Time: 05:13 (04:13 UTC)

Forecast

The report was made 2 hours and 13 minutes ago, at 02:00 UTC
Forecast valid from 19 at 03 UTC to 20 at 03 UTC
Wind 12 kt from the North
Visibility 10 km or more
Scattered clouds at a height of 2500 ft

TAF: GCLP 190200Z 1903/2003 36012KT 9999 SCT025 TX29/1914Z TN24/1905Z

Weather observations and forecasts of more than 4000 airports (METAR and TAF reports).

The available stations are represented by yellow and red dots on the map.

Hover mouse over dot to see the name of the station.

Then click to see weather observations and forecasts.

To change the map : click on the green buttons with a black cross to zoom in, on the green button with a dash to zoom out, or on the green arrows for adjacent maps.


METAR-TAF: